Time;durP1;ratioP1;P1;durP2;ratioP2;P2;SDS_P1;SDS_P2;PMS_P1;PMS_P2;Temp;Humidity;BMP_temperature;BMP_pressure;BME280_temperature;BME280_humidity;BME280_pressure;Samples;Min_cycle;Max_cycle;Signal;HPM_P1;HPM_P2
2023/06/23 00:01:39;;;;;;;7.00;2.33;;;21.30;23.90;;;;;;5041959;28;21052;-70
2023/06/23 00:04:06;;;;;;;5.70;2.40;;;21.20;24.50;;;;;;5045740;28;20469;-70
2023/06/23 00:06:33;;;;;;;6.17;2.60;;;21.20;24.80;;;;;;5044402;28;20485;-70
2023/06/23 00:09:00;;;;;;;9.37;3.10;;;21.20;25.30;;;;;;5045731;28;20486;-71
2023/06/23 00:11:28;;;;;;;9.77;2.80;;;21.10;25.70;;;;;;5047943;28;20954;-70
2023/06/23 00:13:56;;;;;;;7.07;2.80;;;21.10;26.50;;;;;;5046034;28;20501;-70
2023/06/23 00:16:23;;;;;;;7.73;3.17;;;21.10;26.50;;;;;;5046499;28;20461;-69
2023/06/23 00:18:52;;;;;;;5.70;2.50;;;21.10;26.80;;;;;;5041987;28;20469;-70
2023/06/23 00:21:20;;;;;;;5.67;2.53;;;21.00;27.20;;;;;;5047825;28;20825;-70
2023/06/23 00:23:47;;;;;;;8.90;3.10;;;21.00;27.00;;;;;;5040747;28;20970;-70
2023/06/23 00:26:14;;;;;;;7.77;3.20;;;21.00;27.50;;;;;;5047960;28;20461;-70
2023/06/23 00:28:40;;;;;;;6.53;2.87;;;21.00;27.60;;;;;;5044948;28;20465;-70
2023/06/23 00:31:07;;;;;;;7.70;3.00;;;20.90;27.80;;;;;;5043831;28;20493;-70
2023/06/23 00:33:34;;;;;;;6.23;2.97;;;20.90;28.10;;;;;;5043149;28;20490;-70
2023/06/23 00:36:02;;;;;;;6.57;3.00;;;20.90;28.50;;;;;;5045690;28;20476;-70
2023/06/23 00:38:28;;;;;;;7.90;3.27;;;20.90;28.00;;;;;;5041917;28;20465;-70
2023/06/23 00:40:55;;;;;;;7.57;3.07;;;20.80;28.00;;;;;;5041500;28;20450;-70
2023/06/23 00:43:22;;;;;;;6.57;2.80;;;20.80;28.00;;;;;;5041265;28;20486;-70
2023/06/23 00:45:49;;;;;;;6.20;3.00;;;20.80;27.90;;;;;;5045986;28;20462;-69
2023/06/23 00:48:16;;;;;;;7.50;2.97;;;20.80;27.80;;;;;;5044648;28;20461;-71
2023/06/23 00:50:43;;;;;;;6.30;2.47;;;20.80;27.70;;;;;;5043651;28;20490;-69
2023/06/23 00:53:12;;;;;;;7.73;3.00;;;20.70;28.00;;;;;;5042903;28;20823;-70
2023/06/23 00:55:39;;;;;;;6.10;2.67;;;20.70;27.60;;;;;;5044600;28;20466;-70
2023/06/23 00:58:08;;;;;;;6.70;2.43;;;20.70;27.70;;;;;;5044408;28;20466;-70
2023/06/23 01:00:35;;;;;;;7.90;2.73;;;20.70;28.00;;;;;;5039590;28;20474;-70
2023/06/23 01:03:03;;;;;;;5.70;2.30;;;20.70;27.40;;;;;;5040866;28;20483;-70
2023/06/23 01:05:32;;;;;;;6.90;2.73;;;20.70;27.40;;;;;;5040569;28;20477;-70
2023/06/23 01:08:11;;;;;;;7.77;2.83;;;20.70;28.20;;;;;;5035280;28;20474;-70
2023/06/23 01:10:45;;;;;;;6.53;2.40;;;20.70;27.90;;;;;;5042919;28;21014;-70
2023/06/23 01:13:20;;;;;;;7.43;2.90;;;20.70;28.00;;;;;;5045396;28;20854;-69
2023/06/23 01:15:52;;;;;;;6.33;2.70;;;20.60;27.90;;;;;;5041327;28;20478;-69
2023/06/23 01:18:29;;;;;;;5.33;2.17;;;20.60;28.00;;;;;;5042098;28;20465;-70
2023/06/23 01:21:02;;;;;;;6.90;2.50;;;20.50;28.50;;;;;;5044745;28;20457;-70
2023/06/23 01:23:45;;;;;;;7.50;2.73;;;20.50;28.80;;;;;;5040852;28;20489;-69
2023/06/23 01:26:33;;;;;;;6.87;2.80;;;20.50;28.70;;;;;;5045550;28;20464;-69
2023/06/23 01:29:07;;;;;;;5.60;2.23;;;20.40;28.90;;;;;;5042690;28;20466;-70
2023/06/23 01:31:44;;;;;;;8.87;2.97;;;20.40;29.10;;;;;;5042914;28;20904;-69
2023/06/23 01:34:20;;;;;;;8.37;2.90;;;20.40;29.40;;;;;;5045943;28;20649;-70
2023/06/23 01:36:52;;;;;;;7.73;3.23;;;20.30;29.00;;;;;;5040132;28;20565;-69
2023/06/23 01:39:21;;;;;;;6.73;2.63;;;20.30;29.00;;;;;;5042332;28;20454;-70
2023/06/23 01:41:53;;;;;;;7.80;3.10;;;20.30;29.30;;;;;;5043572;28;20568;-69
2023/06/23 01:44:24;;;;;;;6.47;2.80;;;20.20;29.30;;;;;;5041988;28;20463;-69
2023/06/23 01:46:55;;;;;;;7.03;2.80;;;20.20;29.40;;;;;;5044818;28;20450;-69
2023/06/23 01:49:25;;;;;;;6.43;2.87;;;20.20;29.40;;;;;;5041913;28;20466;-69
2023/06/23 01:51:53;;;;;;;8.67;4.17;;;20.10;29.70;;;;;;5041675;28;20486;-70
2023/06/23 01:54:21;;;;;;;9.63;3.30;;;20.10;29.90;;;;;;5039620;28;20458;-70
2023/06/23 01:56:49;;;;;;;7.07;3.10;;;20.00;30.10;;;;;;5043302;28;20462;-69
2023/06/23 01:59:18;;;;;;;6.73;2.80;;;20.10;30.30;;;;;;5046248;28;20458;-69
2023/06/23 02:01:48;;;;;;;10.40;3.70;;;20.00;30.30;;;;;;5040011;28;20473;-70
2023/06/23 02:04:17;;;;;;;6.47;2.50;;;20.00;30.50;;;;;;5043705;28;20484;-70
2023/06/23 02:06:46;;;;;;;6.50;2.93;;;20.00;30.60;;;;;;5045392;28;20485;-70
2023/06/23 02:09:18;;;;;;;7.33;3.40;;;20.00;30.70;;;;;;5043104;28;20458;-70
2023/06/23 02:11:46;;;;;;;6.80;2.97;;;20.00;30.80;;;;;;5042192;28;20481;-70
2023/06/23 02:14:14;;;;;;;6.03;2.90;;;20.00;30.90;;;;;;5044627;28;20799;-70
2023/06/23 02:16:42;;;;;;;9.00;3.77;;;20.00;30.50;;;;;;5047736;28;20475;-69
2023/06/23 02:19:12;;;;;;;6.90;3.07;;;20.00;30.60;;;;;;5046446;28;20466;-70
2023/06/23 02:21:39;;;;;;;7.20;3.60;;;20.10;30.70;;;;;;5044894;28;20462;-70
2023/06/23 02:24:08;;;;;;;7.10;3.60;;;20.00;30.50;;;;;;5045255;28;20474;-69
2023/06/23 02:26:37;;;;;;;7.60;3.13;;;20.00;30.80;;;;;;5028112;28;20460;-69
2023/06/23 02:29:06;;;;;;;6.30;2.87;;;20.00;31.10;;;;;;5055735;28;20484;-69
2023/06/23 02:31:33;;;;;;;6.90;3.87;;;20.00;31.20;;;;;;5050254;28;20819;-70
2023/06/23 02:34:00;;;;;;;7.50;2.50;;;20.00;31.40;;;;;;5070045;28;20458;-69
2023/06/23 02:36:33;;;;;;;8.77;3.20;;;20.00;31.70;;;;;;5069059;28;20450;-70
2023/06/23 02:39:04;;;;;;;8.43;4.00;;;19.90;31.80;;;;;;5049592;28;20454;-69
2023/06/23 02:41:35;;;;;;;7.30;3.23;;;19.90;32.20;;;;;;5046156;28;20497;-70
2023/06/23 02:44:09;;;;;;;6.80;3.07;;;20.00;31.90;;;;;;5047510;28;20461;-69
2023/06/23 02:46:39;;;;;;;11.30;3.73;;;19.90;32.50;;;;;;5044012;28;20462;-71
2023/06/23 02:49:09;;;;;;;7.13;3.17;;;19.90;32.80;;;;;;5049507;28;20531;-69
2023/06/23 02:51:39;;;;;;;5.80;2.90;;;19.90;33.10;;;;;;5041959;28;20483;-70
2023/06/23 02:54:10;;;;;;;6.93;3.60;;;19.90;33.20;;;;;;5040593;28;20512;-69
2023/06/23 02:56:42;;;;;;;6.80;3.50;;;19.80;33.30;;;;;;5044561;28;20977;-70
2023/06/23 02:59:12;;;;;;;7.23;3.40;;;19.80;33.90;;;;;;5045412;28;20498;-70
2023/06/23 03:01:41;;;;;;;7.47;3.37;;;19.70;34.30;;;;;;5043180;28;20469;-70
2023/06/23 03:04:08;;;;;;;8.57;3.63;;;19.70;34.60;;;;;;5049798;28;20470;-70
2023/06/23 03:06:35;;;;;;;6.70;3.57;;;19.70;34.60;;;;;;5047748;28;20458;-69
2023/06/23 03:09:05;;;;;;;7.50;3.13;;;19.70;34.90;;;;;;5047786;28;20480;-70
2023/06/23 03:11:34;;;;;;;7.87;3.43;;;19.70;35.40;;;;;;5046217;28;20505;-69
2023/06/23 03:14:01;;;;;;;7.30;3.37;;;19.60;36.00;;;;;;5046271;28;20469;-69
2023/06/23 03:16:33;;;;;;;5.70;2.90;;;19.60;36.40;;;;;;5048098;28;20465;-70
2023/06/23 03:19:11;;;;;;;7.77;2.70;;;19.60;36.80;;;;;;5047548;28;20461;-69
2023/06/23 03:21:39;;;;;;;6.80;3.67;;;19.60;36.90;;;;;;5047832;28;20506;-69
2023/06/23 03:24:13;;;;;;;6.70;3.00;;;19.50;37.30;;;;;;5047257;28;20466;-70
2023/06/23 03:26:46;;;;;;;5.90;2.63;;;19.50;37.60;;;;;;5046005;28;20458;-70
2023/06/23 03:29:14;;;;;;;7.13;2.40;;;19.50;37.80;;;;;;5047685;28;20458;-69
2023/06/23 03:31:45;;;;;;;4.87;1.80;;;19.50;37.80;;;;;;5041795;28;20493;-69
2023/06/23 03:34:11;;;;;;;6.23;1.70;;;19.50;37.60;;;;;;5045145;28;20983;-70
2023/06/23 03:36:41;;;;;;;6.23;1.97;;;19.60;37.50;;;;;;5047020;28;20459;-69
2023/06/23 03:39:17;;;;;;;5.10;2.27;;;19.60;37.60;;;;;;5046486;28;20471;-69
2023/06/23 03:41:46;;;;;;;5.50;2.07;;;19.60;37.40;;;;;;5045027;28;20454;-70
2023/06/23 03:44:24;;;;;;;6.23;2.47;;;19.60;37.00;;;;;;5045430;28;20462;-70
2023/06/23 03:46:55;;;;;;;7.97;2.43;;;19.60;37.10;;;;;;5041976;28;20463;-70
2023/06/23 03:49:27;;;;;;;5.67;2.40;;;19.70;36.80;;;;;;5043909;28;20470;-69
2023/06/23 03:51:57;;;;;;;6.60;2.60;;;19.70;36.40;;;;;;5044041;28;20493;-70
2023/06/23 03:54:27;;;;;;;6.60;2.27;;;19.70;36.00;;;;;;5044025;28;20466;-69
2023/06/23 03:56:55;;;;;;;5.93;2.47;;;19.70;35.80;;;;;;5045830;28;20533;-70
2023/06/23 03:59:24;;;;;;;6.43;3.17;;;19.70;35.80;;;;;;5039919;28;20467;-69
2023/06/23 04:01:52;;;;;;;6.63;2.87;;;19.70;35.80;;;;;;5041367;28;20517;-69
2023/06/23 04:04:21;;;;;;;5.07;2.13;;;19.70;36.00;;;;;;5046688;28;20807;-69
2023/06/23 04:06:49;;;;;;;5.70;2.30;;;19.60;35.90;;;;;;5039287;28;20992;-69
2023/06/23 04:09:19;;;;;;;5.13;1.70;;;19.60;35.80;;;;;;5042756;28;20511;-68
2023/06/23 04:11:49;;;;;;;5.17;2.30;;;19.60;35.90;;;;;;5039164;28;21026;-68
2023/06/23 04:14:16;;;;;;;6.43;2.83;;;19.60;35.60;;;;;;5045689;28;20464;-68
2023/06/23 04:16:45;;;;;;;5.40;2.73;;;19.60;35.70;;;;;;5042214;28;20504;-69
2023/06/23 04:19:13;;;;;;;7.07;3.17;;;19.60;35.30;;;;;;5034721;28;20561;-69
2023/06/23 04:21:41;;;;;;;6.70;3.10;;;19.70;35.40;;;;;;5032302;28;20459;-68
2023/06/23 04:24:09;;;;;;;7.17;3.60;;;19.60;35.30;;;;;;5030993;28;21809;-68
2023/06/23 04:26:37;;;;;;;6.67;3.80;;;19.60;35.20;;;;;;5035727;28;20462;-69
2023/06/23 04:29:10;;;;;;;8.90;3.97;;;19.60;35.30;;;;;;5034575;28;20465;-68
2023/06/23 04:31:39;;;;;;;7.33;3.67;;;19.50;35.60;;;;;;5033258;28;20484;-71
2023/06/23 04:34:06;;;;;;;7.80;4.03;;;19.50;36.10;;;;;;5043674;28;21050;-71
2023/06/23 04:36:39;;;;;;;7.00;4.40;;;19.50;36.20;;;;;;5042063;28;20498;-70
2023/06/23 04:39:13;;;;;;;7.43;3.50;;;19.60;36.20;;;;;;5039188;28;20466;-70
2023/06/23 04:41:43;;;;;;;6.53;3.70;;;19.70;36.00;;;;;;5039672;28;20458;-71
2023/06/23 04:44:13;;;;;;;6.63;3.80;;;19.80;35.40;;;;;;5044337;28;20465;-72
2023/06/23 04:46:42;;;;;;;6.53;3.70;;;19.80;34.70;;;;;;5019984;28;20845;-73
2023/06/23 04:49:11;;;;;;;13.90;4.40;;;19.90;34.10;;;;;;5047338;28;20604;-71
2023/06/23 04:51:42;;;;;;;7.73;4.77;;;19.90;33.80;;;;;;5042146;28;20998;-74
2023/06/23 04:54:12;;;;;;;7.67;4.83;;;20.00;33.40;;;;;;5045966;28;20896;-73
2023/06/23 04:56:41;;;;;;;8.30;5.20;;;20.10;32.90;;;;;;5044943;28;20458;-72
2023/06/23 04:59:11;;;;;;;8.73;4.67;;;20.20;32.50;;;;;;5039666;28;20450;-71
2023/06/23 05:01:41;;;;;;;8.83;4.80;;;20.20;32.00;;;;;;5042700;28;20476;-72
2023/06/23 05:04:09;;;;;;;8.70;5.53;;;20.30;31.60;;;;;;5038008;28;20458;-72
2023/06/23 05:06:38;;;;;;;8.20;5.37;;;20.30;31.50;;;;;;5043914;28;20462;-73
2023/06/23 05:09:06;;;;;;;9.00;5.67;;;20.40;31.00;;;;;;5042185;28;20462;-72
2023/06/23 05:11:34;;;;;;;7.40;5.00;;;20.50;30.60;;;;;;5041111;28;20483;-72
2023/06/23 05:14:03;;;;;;;8.57;5.40;;;20.50;30.10;;;;;;5040781;28;20458;-73
2023/06/23 05:16:32;;;;;;;7.73;5.20;;;20.50;29.80;;;;;;5040895;28;20473;-72
2023/06/23 05:19:01;;;;;;;9.30;5.90;;;20.50;29.60;;;;;;5039234;28;20459;-73
2023/06/23 05:21:30;;;;;;;8.60;5.33;;;20.40;29.20;;;;;;5042171;28;20455;-72
2023/06/23 05:23:58;;;;;;;9.00;6.10;;;20.40;29.10;;;;;;5042650;28;21375;-73
2023/06/23 05:26:26;;;;;;;9.30;6.33;;;20.30;29.20;;;;;;5040089;28;20451;-72
2023/06/23 05:28:55;;;;;;;9.70;6.30;;;20.30;29.50;;;;;;5039107;28;20494;-73
2023/06/23 05:31:24;;;;;;;9.53;6.80;;;20.30;29.30;;;;;;5039712;28;20478;-73
2023/06/23 05:33:53;;;;;;;13.30;6.73;;;20.20;29.30;;;;;;5042730;28;20457;-71
2023/06/23 05:36:22;;;;;;;9.10;6.30;;;20.20;29.40;;;;;;5043150;28;20462;-72
2023/06/23 05:38:51;;;;;;;8.37;6.23;;;20.20;29.90;;;;;;5042731;28;20473;-72
2023/06/23 05:41:18;;;;;;;9.57;6.17;;;20.20;29.80;;;;;;5059603;28;20454;-72
2023/06/23 05:43:45;;;;;;;9.30;5.80;;;20.30;30.00;;;;;;5049671;28;20889;-73
2023/06/23 05:46:15;;;;;;;9.50;6.37;;;20.50;29.60;;;;;;5043304;28;20954;-73
2023/06/23 05:48:46;;;;;;;9.50;6.10;;;20.60;29.00;;;;;;5066956;28;20449;-71
2023/06/23 05:51:18;;;;;;;9.27;7.07;;;20.70;29.00;;;;;;5066110;28;20474;-72
2023/06/23 05:53:50;;;;;;;10.20;6.00;;;20.70;28.50;;;;;;5039472;28;20482;-72
2023/06/23 05:56:22;;;;;;;8.60;6.10;;;20.70;28.00;;;;;;5042382;28;20466;-72
2023/06/23 05:58:53;;;;;;;10.40;7.23;;;20.70;28.10;;;;;;5040605;28;20481;-72
2023/06/23 06:01:22;;;;;;;9.10;6.27;;;20.70;28.00;;;;;;5044011;28;20478;-76
2023/06/23 06:04:00;;;;;;;11.10;6.77;;;20.70;27.60;;;;;;5039023;28;20478;-71
2023/06/23 06:06:29;;;;;;;10.70;7.40;;;20.70;27.90;;;;;;5044357;28;20461;-69
2023/06/23 06:08:57;;;;;;;10.07;7.07;;;20.70;27.70;;;;;;5039973;28;20485;-71
2023/06/23 06:11:26;;;;;;;11.50;8.00;;;20.70;27.70;;;;;;5043763;28;20870;-71
2023/06/23 06:13:53;;;;;;;10.90;8.07;;;20.70;27.70;;;;;;5042922;28;20472;-72
2023/06/23 06:16:20;;;;;;;11.77;8.60;;;20.80;27.50;;;;;;5035369;28;20462;-70
2023/06/23 06:18:48;;;;;;;12.80;8.80;;;20.90;27.00;;;;;;5035647;28;20461;-71
2023/06/23 06:21:17;;;;;;;11.30;8.30;;;20.90;26.70;;;;;;5040373;28;20458;-70
2023/06/23 06:23:47;;;;;;;10.30;7.73;;;21.00;26.40;;;;;;5037609;28;20486;-71
2023/06/23 06:26:17;;;;;;;12.60;9.30;;;21.00;26.20;;;;;;5040963;28;20454;-71
2023/06/23 06:28:46;;;;;;;12.13;9.10;;;21.10;25.90;;;;;;5042072;28;20465;-69
2023/06/23 06:31:13;;;;;;;11.90;9.07;;;21.10;25.70;;;;;;5039065;28;20474;-70
2023/06/23 06:33:42;;;;;;;13.33;9.17;;;21.20;25.20;;;;;;5041213;28;20486;-70
2023/06/23 06:36:09;;;;;;;12.40;9.90;;;21.30;25.10;;;;;;5043051;28;20707;-70
2023/06/23 06:38:38;;;;;;;12.40;9.80;;;21.40;24.90;;;;;;5035848;28;21056;-69
2023/06/23 06:41:08;;;;;;;11.50;8.97;;;22.00;24.10;;;;;;5041741;28;20462;-70
2023/06/23 06:43:35;;;;;;;11.90;8.80;;;24.70;19.70;;;;;;5035755;28;20836;-70
2023/06/23 06:46:03;;;;;;;10.50;8.10;;;27.90;11.80;;;;;;5038681;28;20985;-70
2023/06/23 06:48:32;;;;;;;11.90;9.60;;;29.10;7.80;;;;;;5042812;28;20983;-71
2023/06/23 06:51:00;;;;;;;12.60;9.07;;;29.90;5.50;;;;;;5040736;28;20458;-71
2023/06/23 06:53:28;;;;;;;13.23;9.30;;;31.20;3.10;;;;;;5040370;28;20489;-70
2023/06/23 06:55:56;;;;;;;13.60;10.00;;;30.90;2.00;;;;;;5039350;28;20467;-71
2023/06/23 06:58:24;;;;;;;12.73;10.87;;;30.00;3.10;;;;;;5040147;28;20458;-70
2023/06/23 07:00:53;;;;;;;11.70;10.47;;;30.90;2.60;;;;;;5045415;28;20478;-69
2023/06/23 07:03:20;;;;;;;12.90;10.60;;;31.30;1.00;;;;;;5045262;28;20493;-71
2023/06/23 07:05:47;;;;;;;12.53;11.27;;;31.40;1.00;;;;;;5044420;28;20465;-71
2023/06/23 07:08:13;;;;;;;11.93;10.67;;;30.70;1.40;;;;;;5046752;28;20462;-71
2023/06/23 07:10:40;;;;;;;14.83;11.87;;;30.70;1.00;;;;;;5043839;28;20469;-71
2023/06/23 07:13:07;;;;;;;12.87;11.20;;;31.00;1.00;;;;;;5046443;28;20484;-71
2023/06/23 07:15:35;;;;;;;14.20;11.67;;;31.80;1.00;;;;;;5039078;28;20590;-70
2023/06/23 07:18:02;;;;;;;13.80;11.50;;;32.70;1.00;;;;;;5038120;28;20459;-70
2023/06/23 07:20:28;;;;;;;12.40;11.10;;;33.60;1.00;;;;;;5042609;28;20454;-71
2023/06/23 07:22:55;;;;;;;15.03;12.30;;;34.30;1.00;;;;;;5043399;28;20469;-70
2023/06/23 07:25:22;;;;;;;13.83;12.40;;;34.60;1.00;;;;;;5040756;28;20477;-72
2023/06/23 07:27:49;;;;;;;13.60;12.20;;;34.70;1.00;;;;;;5043627;28;20462;-71
2023/06/23 07:30:17;;;;;;;16.17;12.17;;;36.50;1.00;;;;;;5044962;28;20456;-70
2023/06/23 07:32:46;;;;;;;13.50;12.00;;;38.80;1.00;;;;;;5045016;28;20482;-70
2023/06/23 07:35:13;;;;;;;12.90;10.70;;;39.90;1.00;;;;;;5027574;28;20575;-70
2023/06/23 07:37:40;;;;;;;12.93;11.30;;;38.90;1.00;;;;;;5047040;28;20508;-71
2023/06/23 07:40:07;;;;;;;14.37;12.50;;;37.00;1.00;;;;;;5044068;28;20470;-70
2023/06/23 07:42:35;;;;;;;15.23;13.63;;;35.10;1.00;;;;;;5040080;28;20482;-70
2023/06/23 07:45:01;;;;;;;15.07;13.50;;;33.30;1.00;;;;;;5040332;28;20514;-70
2023/06/23 07:47:28;;;;;;;14.33;12.87;;;32.20;1.00;;;;;;5041300;28;20989;-71
2023/06/23 07:49:56;;;;;;;13.10;11.70;;;31.20;1.00;;;;;;5038168;28;20466;-70
2023/06/23 07:52:23;;;;;;;14.03;12.47;;;30.10;1.00;;;;;;5038232;28;20482;-70
2023/06/23 07:54:50;;;;;;;15.20;13.60;;;29.50;1.00;;;;;;5045590;28;20470;-70
2023/06/23 07:57:17;;;;;;;16.77;12.67;;;28.90;1.00;;;;;;5040239;28;20469;-70
2023/06/23 07:59:43;;;;;;;18.67;14.57;;;28.30;2.00;;;;;;5036469;28;20462;-70
2023/06/23 08:02:10;;;;;;;16.37;13.97;;;27.80;2.60;;;;;;5045009;28;20482;-70
2023/06/23 08:04:37;;;;;;;17.87;13.00;;;27.30;3.90;;;;;;5045501;28;20466;-70
2023/06/23 08:07:06;;;;;;;16.80;13.77;;;26.90;3.90;;;;;;5040627;28;20838;-69
2023/06/23 08:09:32;;;;;;;18.10;13.20;;;26.50;4.50;;;;;;5040773;28;20494;-70
2023/06/23 08:11:59;;;;;;;18.70;14.53;;;26.30;4.90;;;;;;5040883;28;20495;-70
2023/06/23 08:14:26;;;;;;;15.53;12.53;;;26.30;6.30;;;;;;5045117;28;20954;-70
2023/06/23 08:16:53;;;;;;;14.57;12.53;;;27.30;5.10;;;;;;5042984;28;20466;-69
2023/06/23 08:19:21;;;;;;;12.83;10.63;;;27.00;4.30;;;;;;5038479;28;20458;-70
2023/06/23 08:21:49;;;;;;;13.13;10.40;;;27.40;4.80;;;;;;5041843;28;20986;-70
2023/06/23 08:24:17;;;;;;;13.63;10.93;;;30.00;1.10;;;;;;5038639;28;20493;-70
2023/06/23 08:26:44;;;;;;;15.47;10.30;;;31.50;1.00;;;;;;5037110;28;20483;-70
2023/06/23 08:29:11;;;;;;;10.37;8.53;;;34.20;1.00;;;;;;5039177;28;21130;-70
2023/06/23 08:31:38;;;;;;;9.70;8.27;;;36.60;1.00;;;;;;5044008;28;20473;-70
2023/06/23 08:34:04;;;;;;;11.10;9.30;;;37.20;1.00;;;;;;5042090;28;20462;-70
2023/06/23 08:36:31;;;;;;;14.27;9.07;;;38.80;1.00;;;;;;5047855;28;20466;-70
2023/06/23 08:38:58;;;;;;;9.20;7.90;;;40.60;1.00;;;;;;5042449;28;20461;-69
2023/06/23 08:41:26;;;;;;;10.57;8.93;;;41.50;1.00;;;;;;5040802;28;20466;-70
2023/06/23 08:43:54;;;;;;;13.90;10.40;;;39.60;1.00;;;;;;5044162;28;20458;-71
2023/06/23 08:46:28;;;;;;;10.13;9.13;;;37.50;1.00;;;;;;5053258;28;20473;-70
2023/06/23 08:48:58;;;;;;;10.87;8.40;;;35.70;1.00;;;;;;5066700;28;20529;-70
2023/06/23 08:51:25;;;;;;;12.10;9.23;;;34.10;1.00;;;;;;5047361;28;21500;-69
2023/06/23 08:53:52;;;;;;;10.60;9.13;;;32.70;1.00;;;;;;5041465;28;20848;-70
2023/06/23 08:56:19;;;;;;;10.30;8.60;;;31.50;1.00;;;;;;5038420;28;20459;-69
2023/06/23 08:58:48;;;;;;;10.87;9.60;;;30.90;1.00;;;;;;5045310;28;20462;-70
2023/06/23 09:01:15;;;;;;;12.23;8.63;;;31.40;1.00;;;;;;5042078;28;20473;-69
2023/06/23 09:03:41;;;;;;;10.77;8.63;;;32.70;1.00;;;;;;5043927;28;20474;-70
2023/06/23 09:06:09;;;;;;;10.60;8.67;;;33.20;1.00;;;;;;5044840;28;20962;-69
2023/06/23 09:08:36;;;;;;;10.80;9.27;;;33.30;1.00;;;;;;5045697;28;20487;-70
2023/06/23 09:11:03;;;;;;;10.53;9.10;;;34.00;1.00;;;;;;5047990;28;20462;-67
2023/06/23 09:13:35;;;;;;;10.23;8.83;;;33.40;1.00;;;;;;5047287;28;20486;-67
2023/06/23 09:16:04;;;;;;;14.00;10.47;;;32.10;1.00;;;;;;5042482;28;20465;-67
2023/06/23 09:18:32;;;;;;;15.53;10.90;;;30.90;1.00;;;;;;5044083;28;20463;-67
2023/06/23 09:21:02;;;;;;;12.87;9.73;;;30.00;1.00;;;;;;5043337;28;20467;-66
2023/06/23 09:23:31;;;;;;;12.60;10.47;;;29.30;1.00;;;;;;5043728;28;21872;-66
2023/06/23 09:25:57;;;;;;;11.97;8.73;;;28.90;1.00;;;;;;5043671;28;20473;-67
2023/06/23 09:28:27;;;;;;;13.33;10.93;;;28.70;1.00;;;;;;5041785;28;20958;-67
2023/06/23 09:30:56;;;;;;;13.40;11.27;;;28.50;1.00;;;;;;5044209;28;20485;-67
2023/06/23 09:33:25;;;;;;;13.30;11.70;;;28.50;1.30;;;;;;5041999;28;20481;-67
2023/06/23 09:35:54;;;;;;;12.90;11.23;;;28.40;1.00;;;;;;5044364;28;20465;-69
2023/06/23 09:38:23;;;;;;;14.90;12.50;;;28.20;1.20;;;;;;5038137;28;20458;-71
2023/06/23 09:41:08;;;;;;;13.93;12.23;;;28.20;1.90;;;;;;5044400;28;20485;-69
2023/06/23 09:43:39;;;;;;;17.07;13.43;;;28.10;3.00;;;;;;5038599;28;20481;-68
2023/06/23 09:46:07;;;;;;;16.50;13.03;;;28.10;2.20;;;;;;5043813;28;20515;-71
2023/06/23 09:48:35;;;;;;;14.50;12.57;;;28.00;1.90;;;;;;5038124;28;20841;-68
2023/06/23 09:51:03;;;;;;;16.60;13.47;;;27.90;1.90;;;;;;5037094;28;20469;-68
2023/06/23 09:53:33;;;;;;;15.37;12.43;;;27.80;1.50;;;;;;5042006;28;20486;-68
2023/06/23 09:56:00;;;;;;;17.37;12.97;;;27.60;1.70;;;;;;5037150;28;20471;-70
2023/06/23 09:58:31;;;;;;;14.00;12.13;;;27.40;1.80;;;;;;5038838;28;20462;-68
2023/06/23 10:01:02;;;;;;;13.37;11.47;;;27.40;2.10;;;;;;5034190;28;20478;-68
2023/06/23 10:03:29;;;;;;;15.73;11.73;;;27.30;2.50;;;;;;5040979;28;20489;-68
2023/06/23 10:05:58;;;;;;;15.50;11.00;;;27.30;3.50;;;;;;5041786;28;20473;-69
2023/06/23 10:08:26;;;;;;;12.80;10.43;;;27.40;3.60;;;;;;5038804;28;20493;-67
2023/06/23 10:10:53;;;;;;;13.80;11.40;;;27.50;2.70;;;;;;5046143;28;20575;-67
2023/06/23 10:13:21;;;;;;;14.50;11.20;;;27.40;3.00;;;;;;5038120;28;20494;-68
2023/06/23 10:15:48;;;;;;;13.30;11.47;;;27.50;3.60;;;;;;5044166;28;20474;-67
2023/06/23 10:18:15;;;;;;;16.00;11.23;;;27.60;3.70;;;;;;5040951;28;20459;-68
2023/06/23 10:20:42;;;;;;;13.90;10.93;;;27.70;3.70;;;;;;5039301;28;20473;-67
2023/06/23 10:23:13;;;;;;;15.33;10.87;;;27.90;2.80;;;;;;5051723;22;20483;-75
2023/06/23 10:25:41;;;;;;;12.10;9.53;;;27.90;2.30;;;;;;5020817;28;21208;-74
2023/06/23 10:28:11;;;;;;;15.73;10.30;;;27.90;2.30;;;;;;5024224;28;20463;-76
2023/06/23 10:30:39;;;;;;;13.00;9.50;;;27.80;1.50;;;;;;5026759;28;20467;-76
2023/06/23 10:33:09;;;;;;;12.60;8.73;;;27.60;2.20;;;;;;5024078;28;20495;-76
2023/06/23 10:35:38;;;;;;;10.40;7.53;;;27.30;2.20;;;;;;5026797;28;20804;-76
2023/06/23 10:38:11;;;;;;;11.00;8.40;;;27.30;3.00;;;;;;5027386;28;20477;-75
2023/06/23 10:40:40;;;;;;;11.50;8.87;;;27.30;3.10;;;;;;5029086;28;20990;-77
2023/06/23 10:43:08;;;;;;;10.30;7.90;;;27.30;3.20;;;;;;5025438;28;20518;-77
2023/06/23 10:45:36;;;;;;;10.47;9.00;;;27.40;2.10;;;;;;5029630;28;20502;-77
2023/06/23 10:48:03;;;;;;;11.10;8.60;;;27.20;2.10;;;;;;5030132;28;20463;-77
2023/06/23 10:50:31;;;;;;;11.13;7.93;;;27.00;2.50;;;;;;5029138;28;20486;-77
2023/06/23 10:53:10;;;;;;;9.33;7.20;;;27.10;3.00;;;;;;5037444;28;20837;-77
2023/06/23 10:55:41;;;;;;;10.90;7.57;;;27.30;3.10;;;;;;5027940;28;20545;-76
2023/06/23 10:58:12;;;;;;;11.20;8.90;;;27.30;3.70;;;;;;5027517;28;20481;-76
2023/06/23 11:00:40;;;;;;;12.23;8.10;;;27.30;3.70;;;;;;5029106;28;20478;-77
2023/06/23 11:03:09;;;;;;;11.47;6.97;;;27.40;3.20;;;;;;5020772;28;20498;-78
2023/06/23 11:05:42;;;;;;;8.87;7.33;;;27.30;3.60;;;;;;5021261;28;20466;-74
2023/06/23 11:08:13;;;;;;;8.90;6.00;;;27.20;1.90;;;;;;5024109;28;20526;-74
2023/06/23 11:10:51;;;;;;;9.90;6.87;;;27.00;2.30;;;;;;5022583;28;20467;-74
2023/06/23 11:13:18;;;;;;;10.00;7.43;;;27.00;3.20;;;;;;5022157;28;21042;-74
2023/06/23 11:15:55;;;;;;;10.00;7.90;;;27.10;2.70;;;;;;5027573;28;20470;-73
2023/06/23 11:18:23;;;;;;;8.97;7.07;;;27.10;2.70;;;;;;5026675;28;20810;-73
2023/06/23 11:20:51;;;;;;;7.80;6.37;;;27.00;2.90;;;;;;5026743;28;20500;-73
2023/06/23 11:23:19;;;;;;;9.80;6.07;;;26.90;3.40;;;;;;5025075;28;20489;-73
2023/06/23 11:25:48;;;;;;;7.80;5.50;;;26.90;3.50;;;;;;5022326;28;21245;-73
2023/06/23 11:28:35;;;;;;;10.77;5.43;;;26.90;2.40;;;;;;5017495;28;20471;-73
2023/06/23 11:31:07;;;;;;;7.87;5.57;;;26.70;2.70;;;;;;5023585;28;20482;-73
2023/06/23 11:33:36;;;;;;;6.60;4.37;;;26.60;3.50;;;;;;5026867;28;21017;-73
2023/06/23 11:36:05;;;;;;;7.23;4.80;;;26.50;2.60;;;;;;5023635;28;20479;-73
2023/06/23 11:38:37;;;;;;;7.80;4.10;;;26.50;2.40;;;;;;5019881;28;20470;-73
2023/06/23 11:41:04;;;;;;;7.57;5.10;;;26.60;2.10;;;;;;5024586;28;20466;-73
2023/06/23 11:43:32;;;;;;;7.83;4.63;;;26.50;1.90;;;;;;5024796;28;20495;-73
2023/06/23 11:46:06;;;;;;;7.30;4.73;;;26.40;1.60;;;;;;5024765;28;20548;-73
2023/06/23 11:48:35;;;;;;;9.33;4.83;;;26.40;2.10;;;;;;5026780;28;20463;-73
2023/06/23 11:51:03;;;;;;;7.50;4.57;;;26.40;2.60;;;;;;5024350;28;20893;-73
2023/06/23 11:53:31;;;;;;;9.00;4.23;;;26.40;1.70;;;;;;5022559;28;21768;-73
2023/06/23 11:56:00;;;;;;;7.13;4.93;;;26.40;2.70;;;;;;5020407;28;20950;-73
2023/06/23 11:58:30;;;;;;;6.17;4.00;;;26.50;2.70;;;;;;5023747;28;20463;-73
2023/06/23 12:00:57;;;;;;;6.70;4.80;;;26.60;1.00;;;;;;5024299;28;20486;-73
2023/06/23 12:03:26;;;;;;;7.93;4.10;;;26.60;1.40;;;;;;5012489;28;20478;-73
2023/06/23 12:05:52;;;;;;;11.80;6.60;;;26.80;1.00;;;;;;5018969;28;20467;-73
2023/06/23 12:08:19;;;;;;;7.70;4.80;;;26.80;1.00;;;;;;5017860;28;20500;-73
2023/06/23 12:10:48;;;;;;;7.33;4.27;;;26.80;1.20;;;;;;5020344;28;20474;-73
2023/06/23 12:13:16;;;;;;;7.50;4.57;;;26.80;1.00;;;;;;5018266;28;21271;-73
2023/06/23 12:15:44;;;;;;;7.17;4.10;;;26.80;1.00;;;;;;5027260;28;20920;-73
2023/06/23 12:18:11;;;;;;;10.30;5.93;;;26.80;1.00;;;;;;5019995;28;20469;-73
2023/06/23 12:20:40;;;;;;;7.27;3.90;;;26.90;1.10;;;;;;5023479;28;20474;-73
2023/06/23 12:23:08;;;;;;;7.23;4.03;;;26.80;1.00;;;;;;5022302;28;20483;-73
2023/06/23 12:25:39;;;;;;;8.07;4.70;;;26.70;1.00;;;;;;5020287;28;20536;-73
2023/06/23 12:28:06;;;;;;;6.30;4.40;;;26.60;1.10;;;;;;5020922;28;20971;-73
2023/06/23 12:30:41;;;;;;;7.23;4.30;;;26.30;1.00;;;;;;5022204;28;20486;-73
2023/06/23 12:33:16;;;;;;;6.03;4.30;;;26.20;1.10;;;;;;5023565;28;20486;-73
2023/06/23 12:35:55;;;;;;;8.37;4.83;;;26.10;1.60;;;;;;5023598;28;20585;-73
2023/06/23 12:38:23;;;;;;;8.20;4.83;;;26.00;1.90;;;;;;5025688;28;20562;-73
2023/06/23 12:41:15;;;;;;;12.27;4.80;;;25.90;2.20;;;;;;5020107;28;20471;-73
2023/06/23 12:43:43;;;;;;;12.70;5.43;;;25.90;4.00;;;;;;5024049;28;20479;-72
2023/06/23 12:46:12;;;;;;;9.50;5.33;;;26.00;4.40;;;;;;5026816;28;20886;-73
2023/06/23 12:48:39;;;;;;;7.80;4.37;;;25.90;4.20;;;;;;5023684;28;20478;-73
2023/06/23 12:51:07;;;;;;;6.67;4.30;;;25.90;3.70;;;;;;5022545;28;20497;-73
2023/06/23 12:53:35;;;;;;;9.20;5.10;;;25.80;2.40;;;;;;5023452;28;20483;-72
2023/06/23 12:56:02;;;;;;;6.70;4.60;;;25.80;3.00;;;;;;5021470;28;20495;-72